Hlavní strana
METAR-TAF:

METAR-TAF

Letiště :

Ljungbyhed, Švédsko

zeměpisná šířka: 56-04N, zeměpisná délka: 013-12E, výška: 43 m

Aktuální stav počasí

Zpráva byla vytvořena před 42 minutami, v 21:20 UTC
Východojihovýchodní vítr 6 kt
Teplota 3°C
Vlhkost vzduchu 100%
Tlak 1003 hPa
Viditelnost 10 km a více

METAR: ESTL 122120Z AUTO 11006KT 9999 NCD 03/03 Q1003

Čas: 23:02 (22:02 UTC)

Předpověď počasí

Zpráva byla vytvořena před 10 hodinami a 50 minutami, v 11:12 UTC
Předpověď platná od 12 v 12 UTC do 12 v 16 UTC
Jihojihovýchodní vítr 10 kt
Viditelnost 10 km a více
Oblačno až skoro zataženo ve výšce 2000 ft
Dočasný
od 12 v 12 UTC do 12 v 13 UTC
Oblačno až skoro zataženo ve výšce 700 ft
déšť, mrholení
Dočasný
od 12 v 13 UTC do 12 v 15 UTC
Oblačno až skoro zataženo ve výšce 1200 ft

TAF: ESTL 121112Z 1212/1216 16010KT 9999 BKN020 TEMPO 1212/1213 RADZ BKN007 TEMPO 1213/1215 BKN012

Stav a předpovědi počasí z více než 4 000 letišť (zprávy METAR a TAF).

Červené a žluté tečky na mapě představují dostupné meteorologické stanice.

Když kurzor umístíte na tečku, zobrazí se název stanice.

Pak kliknutím zobrazíte stav a předpověď počasí.

Chcete-li změnit mapu, kliknutím na zelené tlačítko se znaménkem +mapu přiblížíte, kliknutím na zelené tlačítko se znaménkem – mapu oddálíte a kliknutím na zelené šipky přejdete na sousední mapy.


METAR-TAF: